createdAt,value
2023-01-30T00:01:00.569Z,0.00
2023-01-30T00:03:27.511Z,0.00
2023-01-30T00:05:53.871Z,0.00
2023-01-30T00:08:20.272Z,0.00
2023-01-30T00:10:47.221Z,0.00
2023-01-30T00:13:14.512Z,0.45
2023-01-30T00:15:41.312Z,0.21
2023-01-30T00:18:07.974Z,0.89
2023-01-30T00:20:34.389Z,0.83
2023-01-30T00:23:01.357Z,1.05
2023-01-30T00:25:28.468Z,0.92
2023-01-30T00:27:55.058Z,1.26
2023-01-30T00:30:21.445Z,1.15
2023-01-30T00:32:48.013Z,0.80
2023-01-30T00:35:14.465Z,1.27
2023-01-30T00:37:40.814Z,1.71
2023-01-30T00:40:07.689Z,1.39
2023-01-30T00:42:52.435Z,1.65
2023-01-30T00:45:37.429Z,2.02
2023-01-30T00:48:04.047Z,1.95
2023-01-30T00:50:42.651Z,2.16
2023-01-30T00:53:12.751Z,2.02
2023-01-30T00:55:39.168Z,2.18
2023-01-30T00:58:05.564Z,2.34
2023-01-30T01:00:32.523Z,1.61
2023-01-30T01:02:58.959Z,2.14
2023-01-30T01:05:25.645Z,1.94
2023-01-30T01:07:51.995Z,2.05
2023-01-30T01:10:18.516Z,3.03
2023-01-30T01:12:45.923Z,4.88
2023-01-30T01:15:12.709Z,7.04
2023-01-30T01:17:39.796Z,9.05
2023-01-30T01:20:07.305Z,11.62
2023-01-30T01:22:33.665Z,13.41
2023-01-30T01:24:59.988Z,14.59
2023-01-30T01:27:26.570Z,14.70
2023-01-30T01:29:52.918Z,15.86
2023-01-30T01:32:20.690Z,16.02
2023-01-30T01:34:47.415Z,17.35
2023-01-30T01:37:13.777Z,19.64
2023-01-30T01:39:58.989Z,23.14
2023-01-30T01:42:26.403Z,25.58
2023-01-30T01:45:16.545Z,28.22
2023-01-30T01:47:46.243Z,30.18
2023-01-30T01:50:14.924Z,35.10
2023-01-30T01:52:41.485Z,40.13
2023-01-30T01:55:07.917Z,43.80
2023-01-30T01:57:37.855Z,49.12
2023-01-30T02:00:16.220Z,53.94
2023-01-30T02:02:54.645Z,59.07
2023-01-30T02:05:21.124Z,62.84
2023-01-30T02:07:52.593Z,65.97
2023-01-30T02:10:27.688Z,67.24
2023-01-30T02:12:54.049Z,66.94
2023-01-30T02:15:20.518Z,66.66
2023-01-30T02:17:47.095Z,66.38
2023-01-30T02:20:23.186Z,66.96
2023-01-30T02:23:04.784Z,68.20
2023-01-30T02:25:44.634Z,69.05
2023-01-30T02:28:32.516Z,69.49
2023-01-30T02:31:05.045Z,70.33
2023-01-30T02:33:39.966Z,72.87
2023-01-30T02:36:43.390Z,74.61
2023-01-30T02:39:40.211Z,75.37
2023-01-30T02:42:18.792Z,75.00
2023-01-30T02:44:47.185Z,73.94
2023-01-30T02:47:23.082Z,73.47
2023-01-30T02:49:52.812Z,73.72
2023-01-30T02:52:19.200Z,72.00
2023-01-30T02:54:45.556Z,71.23
2023-01-30T02:57:22.776Z,71.47
2023-01-30T02:59:54.405Z,71.76
2023-01-30T03:02:27.383Z,72.36
2023-01-30T03:05:04.790Z,72.99
2023-01-30T03:07:46.022Z,73.21
2023-01-30T03:10:12.355Z,73.97
2023-01-30T03:12:41.563Z,75.50
2023-01-30T03:15:12.487Z,76.40
2023-01-30T03:17:40.098Z,77.17
2023-01-30T03:20:07.113Z,77.66
2023-01-30T03:22:33.726Z,78.01
2023-01-30T03:25:00.332Z,78.48
2023-01-30T03:27:26.689Z,77.37
2023-01-30T03:29:53.070Z,75.97
2023-01-30T03:32:19.424Z,76.06
2023-01-30T03:34:45.809Z,76.72
2023-01-30T03:37:15.375Z,76.44
2023-01-30T03:39:41.775Z,75.13
2023-01-30T03:42:08.322Z,73.48
2023-01-30T03:44:34.910Z,72.59
2023-01-30T03:47:01.632Z,71.50
2023-01-30T03:49:28.090Z,71.07
2023-01-30T03:51:54.814Z,73.77
2023-01-30T03:54:21.165Z,79.85
2023-01-30T03:56:51.744Z,87.20
2023-01-30T03:59:18.111Z,95.47
2023-01-30T04:01:44.516Z,100.00
2023-01-30T04:04:10.846Z,100.00
2023-01-30T04:06:37.444Z,100.00
2023-01-30T04:09:03.845Z,100.00
2023-01-30T04:11:30.192Z,100.00
2023-01-30T04:13:56.611Z,100.00
2023-01-30T04:16:25.365Z,100.00
2023-01-30T04:18:51.881Z,100.00
2023-01-30T04:21:18.491Z,100.00
2023-01-30T04:23:44.895Z,100.00
2023-01-30T04:26:11.426Z,100.00
2023-01-30T04:28:38.013Z,100.00
2023-01-30T04:31:04.683Z,100.00
2023-01-30T04:33:31.080Z,100.00
2023-01-30T04:35:58.691Z,100.00
2023-01-30T04:38:25.879Z,100.00
2023-01-30T04:40:53.091Z,100.00
2023-01-30T04:43:19.995Z,100.00
2023-01-30T04:45:46.551Z,100.00
2023-01-30T04:48:13.238Z,100.00
2023-01-30T04:50:40.608Z,100.00
2023-01-30T04:53:07.023Z,100.00
2023-01-30T04:55:33.716Z,100.00
2023-01-30T04:58:00.372Z,100.00
2023-01-30T05:00:27.089Z,100.00
2023-01-30T05:02:53.533Z,100.00
2023-01-30T05:05:20.132Z,100.00
2023-01-30T05:07:46.647Z,100.00
2023-01-30T05:10:12.980Z,100.00
2023-01-30T05:12:39.548Z,100.00
2023-01-30T05:15:06.801Z,100.00
2023-01-30T05:17:33.980Z,100.00
2023-01-30T05:20:00.600Z,100.00
2023-01-30T05:22:27.010Z,100.00
2023-01-30T05:24:53.368Z,100.00
2023-01-30T05:27:19.904Z,100.00
2023-01-30T05:29:46.304Z,100.00
2023-01-30T05:32:13.894Z,100.00
2023-01-30T05:34:40.321Z,100.00
2023-01-30T05:37:06.678Z,100.00
2023-01-30T05:39:33.316Z,100.00
2023-01-30T05:41:59.723Z,100.00
2023-01-30T05:44:26.076Z,100.00
2023-01-30T05:46:52.474Z,100.00
2023-01-30T05:49:18.910Z,100.00
2023-01-30T05:51:45.260Z,100.00
2023-01-30T05:54:11.688Z,100.00
2023-01-30T05:56:38.239Z,100.00
2023-01-30T05:59:04.925Z,100.00
2023-01-30T06:01:31.310Z,100.00
2023-01-30T06:03:58.266Z,100.00
2023-01-30T06:06:24.780Z,100.00
2023-01-30T06:08:57.076Z,100.00
2023-01-30T06:11:23.847Z,100.00
2023-01-30T06:13:50.270Z,100.00
2023-01-30T06:16:17.452Z,100.00
2023-01-30T06:18:44.191Z,100.00
2023-01-30T06:21:10.531Z,100.00
2023-01-30T06:23:36.926Z,100.00
2023-01-30T06:26:05.879Z,100.00
2023-01-30T06:28:34.420Z,100.00
2023-01-30T06:31:00.980Z,100.00
2023-01-30T06:33:27.638Z,100.00
2023-01-30T06:35:54.325Z,100.00
2023-01-30T06:38:24.332Z,100.00
2023-01-30T06:40:51.963Z,100.00
2023-01-30T06:43:18.623Z,100.00
2023-01-30T06:45:44.995Z,100.00
2023-01-30T06:48:11.593Z,100.00
2023-01-30T06:50:38.037Z,100.00
2023-01-30T06:53:06.005Z,100.00
2023-01-30T06:55:34.499Z,100.00
2023-01-30T06:58:11.247Z,100.00
2023-01-30T07:00:40.161Z,100.00
2023-01-30T07:03:12.625Z,100.00
2023-01-30T07:05:39.886Z,100.00
2023-01-30T07:08:06.381Z,100.00
2023-01-30T07:10:32.832Z,100.00
2023-01-30T07:12:59.608Z,100.00
2023-01-30T07:15:26.423Z,100.00
2023-01-30T07:17:52.768Z,100.00
2023-01-30T07:20:19.167Z,100.00
2023-01-30T07:22:52.387Z,100.00
2023-01-30T07:25:19.837Z,100.00
2023-01-30T07:27:53.028Z,100.00
2023-01-30T07:30:19.574Z,100.00
2023-01-30T07:32:52.743Z,100.00
2023-01-30T07:35:19.467Z,100.00
2023-01-30T07:37:49.099Z,100.00
2023-01-30T07:40:15.863Z,100.00
2023-01-30T07:42:42.584Z,100.00
2023-01-30T07:45:09.358Z,100.00
2023-01-30T07:47:35.831Z,100.00
2023-01-30T07:50:02.408Z,100.00
2023-01-30T07:52:28.989Z,100.00
2023-01-30T07:54:55.347Z,100.00
2023-01-30T07:57:21.710Z,100.00
2023-01-30T07:59:48.067Z,100.00
2023-01-30T08:02:14.454Z,100.00
2023-01-30T08:04:40.902Z,100.00
2023-01-30T08:07:07.293Z,100.00
2023-01-30T08:09:33.763Z,100.00
2023-01-30T08:12:00.359Z,89.19
2023-01-30T08:14:28.678Z,83.47
2023-01-30T08:16:56.758Z,78.82
2023-01-30T08:19:23.146Z,76.76
2023-01-30T08:21:49.491Z,76.87
2023-01-30T08:24:16.023Z,75.82
2023-01-30T08:26:42.398Z,76.19
2023-01-30T08:29:08.762Z,77.05
2023-01-30T08:31:35.177Z,78.70
2023-01-30T08:34:01.530Z,80.60
2023-01-30T08:36:28.134Z,79.81
2023-01-30T08:38:54.578Z,78.53
2023-01-30T08:41:20.978Z,78.61
2023-01-30T08:43:47.566Z,74.00
2023-01-30T08:46:14.010Z,69.53
2023-01-30T08:48:49.453Z,68.31
2023-01-30T08:51:16.687Z,65.96
2023-01-30T08:53:43.045Z,65.49
2023-01-30T08:56:09.540Z,64.25
2023-01-30T08:58:35.902Z,63.75
2023-01-30T09:01:06.802Z,63.08
2023-01-30T09:03:33.193Z,63.76
2023-01-30T09:05:59.548Z,63.46
2023-01-30T09:08:26.137Z,62.75
2023-01-30T09:10:52.480Z,62.72
2023-01-30T09:13:18.994Z,62.33
2023-01-30T09:15:45.752Z,60.99
2023-01-30T09:18:12.235Z,58.95
2023-01-30T09:20:39.016Z,58.57
2023-01-30T09:23:05.449Z,58.17
2023-01-30T09:25:31.796Z,60.59
2023-01-30T09:27:58.210Z,63.80
2023-01-30T09:30:24.613Z,60.96
2023-01-30T09:32:51.075Z,63.80
2023-01-30T09:35:17.545Z,66.16
2023-01-30T09:37:48.305Z,66.12
2023-01-30T09:40:18.991Z,59.81
2023-01-30T09:42:57.718Z,54.70
2023-01-30T09:45:30.898Z,50.67
2023-01-30T09:48:09.721Z,49.56
2023-01-30T09:51:00.418Z,50.68
2023-01-30T09:53:36.238Z,55.80
2023-01-30T09:56:02.817Z,68.19
2023-01-30T09:58:52.200Z,61.26
2023-01-30T10:01:24.091Z,61.93
2023-01-30T10:04:15.384Z,60.94
2023-01-30T10:06:55.316Z,61.22
2023-01-30T10:09:53.025Z,63.98
2023-01-30T10:12:34.660Z,73.48
2023-01-30T10:15:25.891Z,74.01
2023-01-30T10:17:52.244Z,73.74
2023-01-30T10:20:35.782Z,74.43
2023-01-30T10:23:22.802Z,73.00
2023-01-30T10:25:57.181Z,70.93
2023-01-30T10:28:31.888Z,76.00
2023-01-30T10:31:13.719Z,75.91
2023-01-30T10:33:46.656Z,75.38
2023-01-30T10:36:16.493Z,81.36
2023-01-30T10:38:50.720Z,88.60
2023-01-30T10:41:37.804Z,92.73
2023-01-30T10:44:06.071Z,90.73
2023-01-30T10:46:57.337Z,91.04
2023-01-30T10:49:36.814Z,91.98
2023-01-30T10:52:24.197Z,92.22
2023-01-30T10:55:12.570Z,97.02
2023-01-30T10:57:48.250Z,100.00
2023-01-30T11:00:21.926Z,100.00
2023-01-30T11:02:54.311Z,100.00
2023-01-30T11:05:48.369Z,100.00
2023-01-30T11:08:25.819Z,100.00
2023-01-30T11:10:52.954Z,100.00
2023-01-30T11:13:26.516Z,100.00
2023-01-30T11:15:54.403Z,100.00
2023-01-30T11:19:16.653Z,100.00
2023-01-30T11:21:14.406Z,100.00
2023-01-30T11:23:42.115Z,100.00
2023-01-30T11:26:21.755Z,100.00
2023-01-30T11:28:49.069Z,100.00
2023-01-30T11:31:40.353Z,100.00
2023-01-30T11:34:18.422Z,100.00
2023-01-30T11:36:47.297Z,100.00
2023-01-30T11:39:14.042Z,100.00
2023-01-30T11:41:57.320Z,100.00
2023-01-30T11:44:33.218Z,100.00
2023-01-30T11:47:07.137Z,77.91
2023-01-30T11:50:30.752Z,59.65
2023-01-30T11:52:36.813Z,54.28
2023-01-30T11:55:08.515Z,38.17
2023-01-30T11:57:54.431Z,42.09
2023-01-30T12:00:23.804Z,45.67
2023-01-30T12:02:51.077Z,49.55
2023-01-30T12:05:55.287Z,50.92
2023-01-30T12:08:31.162Z,50.20
2023-01-30T12:11:02.453Z,48.42
2023-01-30T12:13:34.578Z,42.86
2023-01-30T12:16:17.777Z,36.36
2023-01-30T12:18:59.411Z,31.91
2023-01-30T12:21:55.099Z,31.74
2023-01-30T12:24:49.052Z,31.53
2023-01-30T12:27:29.994Z,30.27
2023-01-30T12:30:02.381Z,33.52
2023-01-30T12:32:31.156Z,21.45
2023-01-30T12:34:57.652Z,20.97
2023-01-30T12:37:27.159Z,20.01
2023-01-30T12:40:16.072Z,19.60
2023-01-30T12:43:10.939Z,21.77
2023-01-30T12:45:44.413Z,25.55
2023-01-30T12:48:22.935Z,27.10
2023-01-30T12:51:13.040Z,24.10
2023-01-30T12:54:02.483Z,20.68
2023-01-30T12:56:42.834Z,23.32
2023-01-30T12:59:20.622Z,24.51
2023-01-30T13:01:59.243Z,24.88
2023-01-30T13:05:13.924Z,26.27
2023-01-30T13:07:51.283Z,26.41
2023-01-30T13:10:39.223Z,25.89
2023-01-30T13:13:14.373Z,24.06
2023-01-30T13:15:56.807Z,21.59
2023-01-30T13:18:40.644Z,21.14
2023-01-30T13:21:30.242Z,20.42
2023-01-30T13:24:15.266Z,21.55
2023-01-30T13:26:42.223Z,21.21
2023-01-30T13:29:20.939Z,20.90
2023-01-30T13:31:54.989Z,21.98
2023-01-30T13:34:33.753Z,23.55
2023-01-30T13:37:19.437Z,23.23
2023-01-30T13:39:59.824Z,22.31
2023-01-30T13:42:26.218Z,20.21
2023-01-30T13:44:52.991Z,18.66
2023-01-30T13:47:32.260Z,18.70
2023-01-30T13:50:40.872Z,18.51
2023-01-30T13:53:28.032Z,18.08
2023-01-30T13:55:57.455Z,21.67
2023-01-30T13:58:44.237Z,23.88
2023-01-30T14:01:14.288Z,24.48
2023-01-30T14:03:41.825Z,24.79
2023-01-30T14:06:31.566Z,25.91
2023-01-30T14:09:00.632Z,25.89
2023-01-30T14:11:31.913Z,30.34
2023-01-30T14:14:23.839Z,41.19
2023-01-30T14:16:55.132Z,38.58
2023-01-30T14:19:27.502Z,41.14
2023-01-30T14:21:55.895Z,21.40
2023-01-30T14:24:24.941Z,15.63
2023-01-30T14:26:51.340Z,13.75
2023-01-30T14:29:42.710Z,20.26
2023-01-30T14:32:13.015Z,44.37
2023-01-30T14:35:01.137Z,60.20
2023-01-30T14:37:45.013Z,70.48
2023-01-30T14:40:31.629Z,81.83
2023-01-30T14:43:14.720Z,88.96
2023-01-30T14:45:48.932Z,90.00
2023-01-30T14:48:29.044Z,92.60
2023-01-30T14:51:22.448Z,90.69
2023-01-30T14:54:03.011Z,83.49
2023-01-30T14:57:00.605Z,79.22
2023-01-30T14:59:38.282Z,73.65
2023-01-30T15:02:14.008Z,68.77
2023-01-30T15:04:42.263Z,67.95
2023-01-30T15:07:25.052Z,64.86
2023-01-30T15:09:56.993Z,58.63
2023-01-30T15:12:42.239Z,58.18
2023-01-30T15:15:26.776Z,51.19
2023-01-30T15:18:08.334Z,46.43
2023-01-30T15:21:00.249Z,45.81
2023-01-30T15:24:03.632Z,44.69
2023-01-30T15:26:49.012Z,43.61
2023-01-30T15:29:40.509Z,40.47
2023-01-30T15:32:20.404Z,35.74
2023-01-30T15:34:49.903Z,31.31
2023-01-30T15:37:29.894Z,28.86
2023-01-30T15:40:14.569Z,28.58
2023-01-30T15:42:51.025Z,25.60
2023-01-30T15:45:17.437Z,26.43
2023-01-30T15:48:22.551Z,25.58
2023-01-30T15:50:53.830Z,25.25
2023-01-30T15:53:25.792Z,25.88
2023-01-30T15:55:52.162Z,26.44
2023-01-30T15:58:19.208Z,27.00
2023-01-30T16:00:53.541Z,31.41
2023-01-30T16:03:28.643Z,32.50
2023-01-30T16:05:55.963Z,34.63
2023-01-30T16:08:33.177Z,36.32
2023-01-30T16:11:00.687Z,36.61
2023-01-30T16:13:27.950Z,38.31
2023-01-30T16:15:55.632Z,40.01
2023-01-30T16:18:37.917Z,41.00
2023-01-30T16:21:05.368Z,42.05
2023-01-30T16:23:34.629Z,42.55
2023-01-30T16:26:01.102Z,42.84
2023-01-30T16:28:28.238Z,42.94
2023-01-30T16:31:12.627Z,44.05
2023-01-30T16:33:39.352Z,43.84
2023-01-30T16:36:07.416Z,45.12
2023-01-30T16:38:38.380Z,45.00
2023-01-30T16:41:05.047Z,44.16
2023-01-30T16:43:32.300Z,43.67
2023-01-30T16:46:42.988Z,41.83
2023-01-30T16:49:21.550Z,37.61
2023-01-30T16:51:48.187Z,31.64
2023-01-30T16:54:23.823Z,22.88
2023-01-30T16:56:52.042Z,21.73
2023-01-30T16:59:20.441Z,22.56
2023-01-30T17:01:46.949Z,22.13
2023-01-30T17:04:20.542Z,22.24
2023-01-30T17:07:05.240Z,21.84
2023-01-30T17:09:42.968Z,23.36
2023-01-30T17:12:28.152Z,22.63
2023-01-30T17:15:09.967Z,21.74
2023-01-30T17:17:36.393Z,21.53
2023-01-30T17:20:02.975Z,21.80
2023-01-30T17:22:29.376Z,23.32
2023-01-30T17:24:58.487Z,24.09
2023-01-30T17:27:26.006Z,22.95
2023-01-30T17:29:52.393Z,20.86
2023-01-30T17:32:18.958Z,20.22
2023-01-30T17:34:45.346Z,18.90
2023-01-30T17:37:22.987Z,19.16
2023-01-30T17:39:49.386Z,19.12
2023-01-30T17:42:17.891Z,19.62
2023-01-30T17:44:44.329Z,18.75
2023-01-30T17:47:11.304Z,18.43
2023-01-30T17:49:37.691Z,17.94
2023-01-30T17:52:04.422Z,16.85
2023-01-30T17:54:30.854Z,16.24
2023-01-30T17:57:01.663Z,16.04
2023-01-30T17:59:28.316Z,16.06
2023-01-30T18:01:54.685Z,16.58
2023-01-30T18:04:21.116Z,16.27
2023-01-30T18:06:49.234Z,16.49
2023-01-30T18:09:19.601Z,16.47
2023-01-30T18:11:46.550Z,18.08
2023-01-30T18:14:13.144Z,20.61
2023-01-30T18:16:39.550Z,21.77
2023-01-30T18:19:08.543Z,21.95
2023-01-30T18:21:36.586Z,22.02
2023-01-30T18:24:03.194Z,21.67
2023-01-30T18:26:30.041Z,22.02
2023-01-30T18:28:56.846Z,22.24
2023-01-30T18:31:25.117Z,21.06
2023-01-30T18:33:52.360Z,20.21
2023-01-30T18:36:19.428Z,19.69
2023-01-30T18:38:46.249Z,18.02
2023-01-30T18:41:17.651Z,15.07
2023-01-30T18:43:44.269Z,14.00
2023-01-30T18:46:15.340Z,14.70
2023-01-30T18:48:41.887Z,14.25
2023-01-30T18:51:15.389Z,14.35
2023-01-30T18:53:42.687Z,14.56
2023-01-30T18:56:13.251Z,15.36
2023-01-30T18:58:39.765Z,16.48
2023-01-30T19:01:14.281Z,19.92
2023-01-30T19:03:41.032Z,22.40
2023-01-30T19:06:10.078Z,25.21
2023-01-30T19:08:37.244Z,27.94
2023-01-30T19:11:33.285Z,31.49
2023-01-30T19:14:00.009Z,34.78
2023-01-30T19:16:27.887Z,37.12
2023-01-30T19:18:54.447Z,38.65
2023-01-30T19:21:20.904Z,39.02
2023-01-30T19:23:47.294Z,37.75
2023-01-30T19:26:13.707Z,37.62
2023-01-30T19:28:41.857Z,34.46
2023-01-30T19:31:09.080Z,30.36
2023-01-30T19:33:35.958Z,26.91
2023-01-30T19:36:17.829Z,25.21
2023-01-30T19:38:44.830Z,25.00
2023-01-30T19:41:12.225Z,25.47
2023-01-30T19:43:38.820Z,26.00
2023-01-30T19:46:05.902Z,23.86
2023-01-30T19:48:32.512Z,22.83
2023-01-30T19:51:05.489Z,20.29
2023-01-30T19:53:33.365Z,20.31
2023-01-30T19:55:59.710Z,22.38
2023-01-30T19:58:26.151Z,23.36
2023-01-30T20:00:52.603Z,21.23
2023-01-30T20:03:19.036Z,18.96
2023-01-30T20:05:45.713Z,18.19
2023-01-30T20:08:25.611Z,16.90
2023-01-30T20:11:08.260Z,14.27
2023-01-30T20:13:35.525Z,13.38
2023-01-30T20:16:06.597Z,12.23
2023-01-30T20:18:34.401Z,11.80
2023-01-30T20:21:21.535Z,11.56
2023-01-30T20:23:48.523Z,11.25
2023-01-30T20:26:20.402Z,12.31
2023-01-30T20:28:47.236Z,9.82
2023-01-30T20:31:15.849Z,9.59
2023-01-30T20:33:42.480Z,9.18
2023-01-30T20:36:10.586Z,8.54
2023-01-30T20:38:38.208Z,8.68
2023-01-30T20:41:09.633Z,8.60
2023-01-30T20:43:37.284Z,8.48
2023-01-30T20:46:04.804Z,7.60
2023-01-30T20:48:31.222Z,7.11
2023-01-30T20:51:02.029Z,6.82
2023-01-30T20:53:28.634Z,7.03
2023-01-30T20:55:58.989Z,6.28
2023-01-30T20:58:26.144Z,6.05
2023-01-30T21:00:52.575Z,5.28
2023-01-30T21:03:18.951Z,7.05
2023-01-30T21:05:45.355Z,6.51
2023-01-30T21:08:12.011Z,6.10
2023-01-30T21:10:39.721Z,5.29
2023-01-30T21:13:06.819Z,4.90
2023-01-30T21:15:33.399Z,4.84
2023-01-30T21:18:00.354Z,5.48
2023-01-30T21:20:26.780Z,6.01
2023-01-30T21:22:53.215Z,6.52
2023-01-30T21:25:19.965Z,5.31
2023-01-30T21:27:46.589Z,5.87
2023-01-30T21:30:13.882Z,5.64
2023-01-30T21:32:40.495Z,7.64
2023-01-30T21:35:07.273Z,9.26
2023-01-30T21:37:52.423Z,10.99
2023-01-30T21:40:37.899Z,12.40
2023-01-30T21:43:16.418Z,12.43
2023-01-30T21:45:42.833Z,10.42
2023-01-30T21:48:09.260Z,10.97
2023-01-30T21:50:35.608Z,11.75
2023-01-30T21:53:01.962Z,12.33
2023-01-30T21:55:28.358Z,13.24
2023-01-30T21:57:54.731Z,13.63
2023-01-30T22:00:21.094Z,13.59
2023-01-30T22:02:49.595Z,12.55
2023-01-30T22:05:15.975Z,10.28
2023-01-30T22:07:42.610Z,11.70
2023-01-30T22:10:09.556Z,10.46
2023-01-30T22:12:36.445Z,10.62
2023-01-30T22:15:02.937Z,9.06
2023-01-30T22:17:29.366Z,8.87
2023-01-30T22:19:55.758Z,8.66
2023-01-30T22:22:24.074Z,7.96
2023-01-30T22:24:50.592Z,8.58
2023-01-30T22:27:17.050Z,8.04
2023-01-30T22:29:43.631Z,7.77
2023-01-30T22:32:10.215Z,7.56
2023-01-30T22:34:36.902Z,8.31
2023-01-30T22:37:03.316Z,8.86
2023-01-30T22:39:29.658Z,8.13
2023-01-30T22:41:56.041Z,7.15
2023-01-30T22:44:22.465Z,5.03
2023-01-30T22:46:50.057Z,9.98
2023-01-30T22:49:16.430Z,12.45
2023-01-30T22:51:43.615Z,16.89
2023-01-30T22:54:16.675Z,24.24
2023-01-30T22:56:48.801Z,29.87
2023-01-30T22:59:15.572Z,34.72
2023-01-30T23:01:43.293Z,35.46
2023-01-30T23:04:14.521Z,35.35
2023-01-30T23:06:40.950Z,32.75
2023-01-30T23:09:08.313Z,31.40
2023-01-30T23:11:42.762Z,30.82
2023-01-30T23:14:16.489Z,31.25
2023-01-30T23:16:44.111Z,31.56
2023-01-30T23:19:11.528Z,32.71
2023-01-30T23:21:42.711Z,31.97
2023-01-30T23:24:16.982Z,29.31
2023-01-30T23:26:45.113Z,27.37
2023-01-30T23:29:17.187Z,26.00
2023-01-30T23:31:44.323Z,23.57
2023-01-30T23:34:16.164Z,21.50
2023-01-30T23:36:42.804Z,19.64
2023-01-30T23:39:10.094Z,18.16
2023-01-30T23:41:36.698Z,16.86
2023-01-30T23:44:03.289Z,16.00
2023-01-30T23:46:34.415Z,15.11
2023-01-30T23:49:05.654Z,11.26
2023-01-30T23:51:33.116Z,10.37
2023-01-30T23:53:59.569Z,9.37
2023-01-30T23:56:26.906Z,8.89
2023-01-30T23:58:53.370Z,7.19
